This is the latest recevied weather packets stored in our database for station/object KD0RIH. If no packets are shown the sender has not sent any weather packets the latest 10 day(s).
| Time | Temp. | Humidity | Pressure | Rain* | Wind** | Luminosity | Snow |
|---|---|---|---|---|---|---|---|
| 1777819931 | 16.11° C | 44% | 1012.7 hPa | 0 mm | - | 328 W/m² | - |
| 1777819628 | 16.11° C | 43% | 1013.1 hPa | 0 mm | - | 290 W/m² | - |
| 1777819326 | 16.11° C | 43% | 1013.1 hPa | 0 mm | - | 415 W/m² | - |
| 1777819022 | 15° C | 45% | 1013.1 hPa | 0 mm | - | 603 W/m² | - |
| 1777818720 | 15° C | 45% | 1013.1 hPa | 0 mm | - | 266 W/m² | - |
| 1777818416 | 15° C | 46% | 1013.2 hPa | 0 mm | - | 221 W/m² | - |
| 1777818113 | 15° C | 46% | 1013.3 hPa | 0 mm | - | 184 W/m² | - |
| 1777817810 | 14.44° C | 46% | 1013.6 hPa | 0 mm | - | 283 W/m² | - |
| 1777817508 | 13.89° C | 51% | 1013.5 hPa | 0 mm | - | 388 W/m² | - |
| 1777817203 | 13.89° C | 49% | 1013.4 hPa | 0 mm | - | 165 W/m² | - |
| 1777816901 | 13.89° C | 50% | 1013.9 hPa | 0 mm | - | 146 W/m² | - |
| 1777816593 | 13.89° C | 48% | 1013.6 hPa | 0 mm | - | 136 W/m² | - |
| 1777816289 | 13.89° C | 48% | 1013.3 hPa | 0 mm | - | 162 W/m² | - |
| 1777815987 | 13.89° C | 48% | 1013.1 hPa | 0 mm | - | 243 W/m² | - |
| 1777815684 | 13.89° C | 48% | 1013.3 hPa | 0 mm | - | 322 W/m² | - |
| 1777815381 | 13.89° C | 48% | 1013.3 hPa | 0 mm | - | 287 W/m² | - |
| 1777815078 | 13.33° C | 50% | 1013.2 hPa | 0 mm | - | 347 W/m² | - |
| 1777814774 | 13.33° C | 48% | 1013.1 hPa | 0 mm | - | 330 W/m² | - |
| 1777814471 | 12.78° C | 51% | 1013.3 hPa | 0 mm | - | 313 W/m² | - |
| 1777814169 | 12.78° C | 50% | 1013.5 hPa | 0 mm | - | 291 W/m² | - |
| 1777813865 | 12.78° C | 50% | 1013.3 hPa | 0 mm | - | 123 W/m² | - |
| 1777813563 | 12.78° C | 50% | 1013.6 hPa | 0 mm | - | 198 W/m² | - |
| 1777813261 | 12.78° C | 51% | 1013.9 hPa | 0 mm | - | 113 W/m² | - |
| 1777812958 | 12.78° C | 51% | 1013.8 hPa | 0 mm | - | 221 W/m² | - |
| 1777812655 | 12.22° C | 50% | 1013.8 hPa | 0 mm | - | 162 W/m² | - |
* Rain latest hour (hover to see other rain measurements)
** Current wind speed in m/s (hover to see current wind gust speed)